createdAt,value
2024-02-16T00:04:40.389Z,5.68
2024-02-16T00:09:41.197Z,3.85
2024-02-16T00:14:42.042Z,2.92
2024-02-16T00:19:42.958Z,6.53
2024-02-16T00:24:44.065Z,4.78
2024-02-16T00:29:46.497Z,2.90
2024-02-16T00:34:47.323Z,5.93
2024-02-16T00:39:48.370Z,3.35
2024-02-16T00:44:49.396Z,5.45
2024-02-16T00:49:50.260Z,5.25
2024-02-16T00:54:51.232Z,3.08
2024-02-16T00:59:52.039Z,6.53
2024-02-16T01:04:53.355Z,4.53
2024-02-16T01:09:55.088Z,3.05
2024-02-16T01:14:56.014Z,5.32
2024-02-16T01:19:57.208Z,4.85
2024-02-16T01:24:58.444Z,4.18
2024-02-16T01:29:59.219Z,2.55
2024-02-16T01:35:00.129Z,5.47
2024-02-16T01:40:03.395Z,6.18
2024-02-16T01:45:04.771Z,3.65
2024-02-16T01:50:07.458Z,4.53
2024-02-16T01:55:12.299Z,3.47
2024-02-16T02:00:15.330Z,3.78
2024-02-16T02:10:17.957Z,5.18
2024-02-16T02:15:19.678Z,5.22
2024-02-16T02:20:20.676Z,5.22
2024-02-16T02:25:24.092Z,7.20
2024-02-16T02:30:26.420Z,7.45
2024-02-16T02:35:27.286Z,7.35
2024-02-16T02:40:28.110Z,7.35
2024-02-16T02:45:29.047Z,3.67
2024-02-16T02:50:31.214Z,5.22
2024-02-16T02:55:32.137Z,3.60
2024-02-16T03:00:33.260Z,5.53
2024-02-16T03:05:34.126Z,8.60
2024-02-16T03:10:36.217Z,3.70
2024-02-16T03:15:37.512Z,4.87
2024-02-16T03:20:38.299Z,7.10
2024-02-16T03:25:39.695Z,4.47
2024-02-16T03:30:40.893Z,4.35
2024-02-16T03:35:41.757Z,7.37
2024-02-16T03:40:42.535Z,3.87
2024-02-16T03:45:43.428Z,5.43
2024-02-16T03:50:44.229Z,3.75
2024-02-16T03:55:45.197Z,4.10
2024-02-16T04:00:46.149Z,9.15
2024-02-16T04:05:47.281Z,4.28
2024-02-16T04:10:48.243Z,3.40
2024-02-16T04:15:52.425Z,5.22
2024-02-16T04:20:55.517Z,3.97
2024-02-16T04:25:56.860Z,9.15
2024-02-16T04:30:57.712Z,6.07
2024-02-16T04:35:58.552Z,5.45
2024-02-16T04:40:59.443Z,4.70
2024-02-16T04:46:01.086Z,3.08
2024-02-16T04:51:02.270Z,4.82
2024-02-16T04:56:05.360Z,6.25
2024-02-16T05:01:07.425Z,4.12
2024-02-16T05:06:08.394Z,5.97
2024-02-16T05:11:09.449Z,3.83
2024-02-16T05:16:11.441Z,3.78
2024-02-16T05:21:12.263Z,3.78
2024-02-16T05:26:13.199Z,4.40
2024-02-16T05:31:19.012Z,5.43
2024-02-16T05:36:21.039Z,5.90
2024-02-16T05:41:21.870Z,6.20
2024-02-16T05:46:23.983Z,6.40
2024-02-16T05:51:24.953Z,4.83
2024-02-16T05:56:25.928Z,3.53
2024-02-16T06:01:28.190Z,7.25
2024-02-16T06:06:29.153Z,4.00
2024-02-16T06:11:30.228Z,7.28
2024-02-16T06:16:31.103Z,11.23
2024-02-16T06:21:31.944Z,5.30
2024-02-16T06:26:32.882Z,4.85
2024-02-16T06:31:33.657Z,6.05
2024-02-16T06:36:34.965Z,6.05
2024-02-16T06:41:35.845Z,4.15
2024-02-16T06:46:36.654Z,7.32
2024-02-16T06:51:37.556Z,6.55
2024-02-16T06:56:38.802Z,5.60
2024-02-16T07:01:41.029Z,4.75
2024-02-16T07:06:42.442Z,5.40
2024-02-16T07:11:48.290Z,6.45
2024-02-16T07:16:50.606Z,3.70
2024-02-16T07:21:52.700Z,3.83
2024-02-16T07:26:53.808Z,4.57
2024-02-16T07:31:56.368Z,3.10
2024-02-16T07:36:57.469Z,6.70
2024-02-16T07:41:58.422Z,3.80
2024-02-16T07:46:59.427Z,5.75
2024-02-16T07:52:00.255Z,3.92
2024-02-16T07:57:02.136Z,4.50
2024-02-16T08:02:03.538Z,4.30
2024-02-16T08:07:04.384Z,6.35
2024-02-16T08:12:07.364Z,4.78
2024-02-16T08:17:15.784Z,4.75
2024-02-16T08:22:22.470Z,5.33
2024-02-16T08:27:23.567Z,4.45
2024-02-16T08:32:24.535Z,4.60
2024-02-16T08:37:26.037Z,6.20
2024-02-16T08:42:26.984Z,5.35
2024-02-16T08:47:28.069Z,4.18
2024-02-16T08:52:29.039Z,5.97
2024-02-16T08:57:32.632Z,6.00
2024-02-16T09:02:33.622Z,6.00
2024-02-16T09:07:34.522Z,5.85
2024-02-16T09:12:35.720Z,5.60
2024-02-16T09:17:37.013Z,5.12
2024-02-16T09:27:47.320Z,5.18
2024-02-16T09:32:48.143Z,6.10
2024-02-16T09:37:49.011Z,4.12
2024-02-16T09:42:50.189Z,4.35
2024-02-16T09:48:01.213Z,7.60
2024-02-16T09:53:14.460Z,4.28
2024-02-16T09:58:18.516Z,3.95
2024-02-16T10:03:30.568Z,6.18
2024-02-16T10:08:31.662Z,6.22
2024-02-16T10:13:32.699Z,5.82
2024-02-16T10:18:33.822Z,7.53
2024-02-16T10:23:43.586Z,9.38
2024-02-16T10:28:46.662Z,5.20
2024-02-16T10:33:47.992Z,5.07
2024-02-16T10:38:51.177Z,9.32
2024-02-16T10:43:54.329Z,4.18
2024-02-16T10:48:55.636Z,7.35
2024-02-16T10:53:59.477Z,4.43
2024-02-16T10:59:04.568Z,12.98
2024-02-16T11:04:10.106Z,9.43
2024-02-16T11:09:11.113Z,5.82
2024-02-16T11:14:16.334Z,9.77
2024-02-16T11:19:17.555Z,8.98
2024-02-16T11:24:23.963Z,8.70
2024-02-16T11:29:26.259Z,7.68
2024-02-16T11:34:28.110Z,6.20
2024-02-16T11:39:33.447Z,5.90
2024-02-16T11:44:40.213Z,7.75
2024-02-16T11:49:41.451Z,8.38
2024-02-16T11:54:45.662Z,7.32
2024-02-16T11:59:46.869Z,13.23
2024-02-16T12:04:55.396Z,8.95
2024-02-16T12:10:06.657Z,11.70
2024-02-16T12:15:08.424Z,7.53
2024-02-16T12:20:16.554Z,8.43
2024-02-16T12:25:17.627Z,12.05
2024-02-16T12:30:18.776Z,8.73
2024-02-16T12:35:19.709Z,4.45
2024-02-16T12:40:20.550Z,7.57
2024-02-16T12:45:24.267Z,8.30
2024-02-16T12:50:25.568Z,9.27
2024-02-16T12:55:26.518Z,8.50
2024-02-16T13:00:27.460Z,7.82
2024-02-16T13:05:29.445Z,9.55
2024-02-16T13:10:30.686Z,7.80
2024-02-16T13:15:31.674Z,6.93
2024-02-16T13:20:34.786Z,8.27
2024-02-16T13:25:36.543Z,8.07
2024-02-16T13:30:37.668Z,5.45
2024-02-16T13:35:39.423Z,8.20
2024-02-16T13:40:41.707Z,7.78
2024-02-16T13:45:53.567Z,12.60
2024-02-16T13:50:56.362Z,8.88
2024-02-16T13:56:01.177Z,6.82
2024-02-16T14:01:04.109Z,17.42
2024-02-16T14:11:08.688Z,9.13
2024-02-16T14:16:10.508Z,8.68
2024-02-16T14:21:11.893Z,7.10
2024-02-16T14:26:12.739Z,6.45
2024-02-16T14:31:14.508Z,6.37
2024-02-16T14:36:16.192Z,8.23
2024-02-16T14:41:17.117Z,4.82
2024-02-16T14:46:17.925Z,7.80
2024-02-16T14:51:18.866Z,5.03
2024-02-16T14:56:22.152Z,5.53
2024-02-16T15:01:23.171Z,4.28
2024-02-16T15:06:24.073Z,4.37
2024-02-16T15:11:24.956Z,6.85
2024-02-16T15:16:25.796Z,4.85
2024-02-16T15:21:28.039Z,4.53
2024-02-16T15:26:28.984Z,5.57
2024-02-16T15:31:29.962Z,11.10
2024-02-16T15:36:31.857Z,9.25
2024-02-16T15:41:32.716Z,6.07
2024-02-16T15:46:34.788Z,17.42
2024-02-16T15:51:35.750Z,13.83
2024-02-16T15:56:37.175Z,8.70
2024-02-16T16:01:38.349Z,4.28
2024-02-16T16:06:39.473Z,5.35
2024-02-16T16:11:43.742Z,4.93
2024-02-16T16:16:44.910Z,4.78
2024-02-16T16:21:46.046Z,3.45
2024-02-16T16:26:49.073Z,3.85
2024-02-16T16:31:50.022Z,3.00
2024-02-16T16:36:51.044Z,3.87
2024-02-16T16:41:55.362Z,2.35
2024-02-16T16:46:56.474Z,6.20
2024-02-16T16:51:58.554Z,9.68
2024-02-16T16:56:59.392Z,4.82
2024-02-16T17:02:03.763Z,3.55
2024-02-16T17:07:04.710Z,7.10
2024-02-16T17:12:07.191Z,6.87
2024-02-16T17:17:07.983Z,3.47
2024-02-16T17:22:08.950Z,3.30
2024-02-16T17:27:09.874Z,5.37
2024-02-16T17:32:11.518Z,5.12
2024-02-16T17:37:12.470Z,4.32
2024-02-16T17:42:13.452Z,6.35
2024-02-16T17:47:15.257Z,4.12
2024-02-16T17:52:17.575Z,4.90
2024-02-16T17:57:19.636Z,3.07
2024-02-16T18:02:29.505Z,3.73
2024-02-16T18:07:40.013Z,4.68
2024-02-16T18:12:41.266Z,3.87
2024-02-16T18:17:42.284Z,4.47
2024-02-16T18:22:43.184Z,6.37
2024-02-16T18:27:44.154Z,3.03
2024-02-16T18:32:45.171Z,3.85
2024-02-16T18:37:46.038Z,5.12
2024-02-16T18:42:48.999Z,5.32
2024-02-16T18:47:50.039Z,3.72
2024-02-16T18:52:51.002Z,2.50
2024-02-16T18:57:53.080Z,3.05
2024-02-16T19:02:54.149Z,4.70
2024-02-16T19:07:55.059Z,2.65
2024-02-16T19:12:56.102Z,4.57
2024-02-16T19:17:57.045Z,2.95
2024-02-16T19:22:58.891Z,3.42
2024-02-16T19:27:59.671Z,4.25
2024-02-16T19:33:01.073Z,4.95
2024-02-16T19:38:02.008Z,5.37
2024-02-16T19:43:03.540Z,4.35
2024-02-16T19:48:04.883Z,6.43
2024-02-16T19:53:05.902Z,6.37
2024-02-16T19:58:06.675Z,4.43
2024-02-16T20:03:08.722Z,5.28
2024-02-16T20:08:09.605Z,4.32
2024-02-16T20:13:11.515Z,3.50
2024-02-16T20:18:17.821Z,4.37
2024-02-16T20:23:18.751Z,3.45
2024-02-16T20:28:19.574Z,3.60
2024-02-16T20:33:20.638Z,5.22
2024-02-16T20:38:21.621Z,2.92
2024-02-16T20:43:22.475Z,6.70
2024-02-16T20:48:23.971Z,1.80
2024-02-16T20:53:24.832Z,0.52
2024-02-16T20:58:25.678Z,1.10
2024-02-16T21:03:26.652Z,1.52
2024-02-16T21:08:27.553Z,2.10
2024-02-16T21:13:28.344Z,3.15
2024-02-16T21:18:29.773Z,3.80
2024-02-16T21:23:30.684Z,5.95
2024-02-16T21:28:31.511Z,5.93
2024-02-16T21:33:35.918Z,6.00
2024-02-16T21:38:37.071Z,7.68
2024-02-16T21:43:38.831Z,5.45
2024-02-16T21:48:44.463Z,8.40
2024-02-16T21:53:50.723Z,8.57
2024-02-16T21:58:51.510Z,7.65
2024-02-16T22:03:52.834Z,11.43
2024-02-16T22:08:54.214Z,12.68
2024-02-16T22:13:55.127Z,12.23
2024-02-16T22:18:56.088Z,14.45
2024-02-16T22:23:58.342Z,12.95
2024-02-16T22:28:59.121Z,14.87
2024-02-16T22:34:00.284Z,13.85
2024-02-16T22:39:01.734Z,15.52
2024-02-16T22:44:04.064Z,16.73
2024-02-16T22:49:05.213Z,18.13
2024-02-16T22:54:06.188Z,18.05
2024-02-16T22:59:07.049Z,16.50
2024-02-16T23:04:08.516Z,18.70
2024-02-16T23:09:10.487Z,19.12
2024-02-16T23:14:11.605Z,18.33
2024-02-16T23:19:12.515Z,18.10
2024-02-16T23:24:13.418Z,23.20
2024-02-16T23:29:16.649Z,18.55
2024-02-16T23:34:17.716Z,19.60
2024-02-16T23:39:18.695Z,22.55
2024-02-16T23:44:19.644Z,19.50
2024-02-16T23:49:20.580Z,14.87
2024-02-16T23:54:21.439Z,15.18
2024-02-16T23:59:22.246Z,13.55
